Time;durP1;ratioP1;P1;durP2;ratioP2;P2;SDS_P1;SDS_P2;PMS_P1;PMS_P2;Temp;Humidity;BMP_temperature;BMP_pressure;BME280_temperature;BME280_humidity;BME280_pressure;Samples;Min_cycle;Max_cycle;Signal;HPM_P1;HPM_P2
2023/12/04 00:01:26;;;;;;;15.13;8.02;;;3.70;82.70;;;;;;5053458;28;20029;-65
2023/12/04 00:03:52;;;;;;;9.35;6.00;;;3.70;82.60;;;;;;5054067;28;20466;-62
2023/12/04 00:06:18;;;;;;;14.05;6.25;;;3.70;82.60;;;;;;5047597;28;20060;-62
2023/12/04 00:08:45;;;;;;;11.27;6.72;;;3.60;82.60;;;;;;5054520;28;20024;-62
2023/12/04 00:11:11;;;;;;;10.52;5.97;;;3.70;82.60;;;;;;5056666;28;20447;-63
2023/12/04 00:13:37;;;;;;;9.43;5.07;;;3.70;82.60;;;;;;5054778;28;20032;-64
2023/12/04 00:16:03;;;;;;;9.93;6.20;;;3.70;82.70;;;;;;5049694;28;20658;-62
2023/12/04 00:18:28;;;;;;;15.45;6.82;;;3.70;82.70;;;;;;5048172;28;20109;-61
2023/12/04 00:20:54;;;;;;;8.07;4.68;;;3.70;82.50;;;;;;5054944;28;20107;-63
2023/12/04 00:23:20;;;;;;;12.38;7.15;;;3.70;82.60;;;;;;5047245;28;20439;-63
2023/12/04 00:25:46;;;;;;;9.98;6.25;;;3.70;82.50;;;;;;5045960;28;20032;-63
2023/12/04 00:28:11;;;;;;;17.50;7.28;;;3.70;82.50;;;;;;5050579;28;20396;-61
2023/12/04 00:30:37;;;;;;;16.30;6.80;;;3.70;82.50;;;;;;5050364;28;20029;-62
2023/12/04 00:33:03;;;;;;;10.82;7.05;;;3.60;82.50;;;;;;5054827;28;20119;-61
2023/12/04 00:35:29;;;;;;;12.52;6.68;;;3.60;82.40;;;;;;5054287;28;20033;-61
2023/12/04 00:37:54;;;;;;;11.20;7.20;;;3.60;82.50;;;;;;5046616;28;20442;-61
2023/12/04 00:40:20;;;;;;;7.80;5.32;;;3.60;82.50;;;;;;5046685;28;20029;-63
2023/12/04 00:42:46;;;;;;;13.30;6.47;;;3.60;82.50;;;;;;5048386;28;20075;-61
2023/12/04 00:45:12;;;;;;;10.43;6.20;;;3.60;82.50;;;;;;5053083;28;20483;-63
2023/12/04 00:47:37;;;;;;;10.40;5.57;;;3.70;82.50;;;;;;5048578;28;20025;-62
2023/12/04 00:50:04;;;;;;;11.85;6.63;;;3.70;82.40;;;;;;5050795;28;20029;-63
2023/12/04 00:52:29;;;;;;;13.60;7.20;;;3.70;82.40;;;;;;5053331;28;20029;-61
2023/12/04 00:54:55;;;;;;;13.07;6.15;;;3.70;82.50;;;;;;5048511;28;20040;-64
2023/12/04 00:57:21;;;;;;;13.88;6.72;;;3.70;82.40;;;;;;5053380;28;20086;-61
2023/12/04 00:59:47;;;;;;;13.00;7.40;;;3.70;82.40;;;;;;5055405;28;20043;-63
2023/12/04 01:02:12;;;;;;;12.18;6.80;;;3.70;82.20;;;;;;5051511;28;20044;-61
2023/12/04 01:04:41;;;;;;;14.70;8.07;;;3.70;82.20;;;;;;5052882;28;20570;-61
2023/12/04 01:07:07;;;;;;;10.82;6.05;;;3.70;82.20;;;;;;5049115;28;20032;-61
2023/12/04 01:09:36;;;;;;;11.90;6.35;;;3.70;82.20;;;;;;5051250;28;20016;-61
2023/12/04 01:12:02;;;;;;;13.55;6.28;;;3.70;82.20;;;;;;5036251;28;20051;-63
2023/12/04 01:14:28;;;;;;;12.25;6.85;;;3.70;82.10;;;;;;5054972;28;20094;-63
2023/12/04 01:16:54;;;;;;;11.95;6.07;;;3.70;82.10;;;;;;5046550;28;20551;-64
2023/12/04 01:19:20;;;;;;;12.45;7.40;;;3.60;82.10;;;;;;5058214;28;20035;-63
2023/12/04 01:21:45;;;;;;;12.50;6.60;;;3.60;82.00;;;;;;5057367;28;20174;-63
2023/12/04 01:24:11;;;;;;;7.65;5.15;;;3.60;82.20;;;;;;5052895;28;20045;-61
2023/12/04 01:26:38;;;;;;;16.83;7.07;;;3.60;82.20;;;;;;5057430;28;20044;-61
2023/12/04 01:29:04;;;;;;;13.02;6.68;;;3.60;82.10;;;;;;5056182;28;20391;-61
2023/12/04 01:31:29;;;;;;;14.82;6.75;;;3.70;82.00;;;;;;5056884;28;20042;-64
2023/12/04 01:33:55;;;;;;;11.10;5.43;;;3.70;82.00;;;;;;5056137;28;20415;-63
2023/12/04 01:36:21;;;;;;;12.45;6.38;;;3.70;82.00;;;;;;5054909;28;20050;-63
2023/12/04 01:38:47;;;;;;;8.82;5.70;;;3.70;82.00;;;;;;5052869;28;20032;-63
2023/12/04 01:41:12;;;;;;;8.18;5.20;;;3.70;82.00;;;;;;5056284;28;20028;-61
2023/12/04 01:43:38;;;;;;;11.73;6.60;;;3.70;82.00;;;;;;5051539;28;20451;-62
2023/12/04 01:46:05;;;;;;;11.30;6.85;;;3.80;82.00;;;;;;5047035;28;20559;-61
2023/12/04 01:48:31;;;;;;;10.00;5.90;;;3.70;82.40;;;;;;5045542;28;20052;-61
2023/12/04 01:51:00;;;;;;;9.05;6.15;;;3.80;81.90;;;;;;5048314;28;20395;-61
2023/12/04 01:53:26;;;;;;;10.32;6.82;;;3.70;81.90;;;;;;5049161;28;20024;-61
2023/12/04 01:55:53;;;;;;;11.32;7.10;;;3.80;81.90;;;;;;5057804;28;20031;-62
2023/12/04 01:58:19;;;;;;;8.55;5.90;;;3.80;82.00;;;;;;5055513;28;20036;-61
2023/12/04 02:00:46;;;;;;;7.03;5.00;;;3.80;82.00;;;;;;5054377;28;20025;-61
2023/12/04 02:03:11;;;;;;;8.60;6.40;;;3.80;81.90;;;;;;5053539;28;20326;-61
2023/12/04 02:05:38;;;;;;;11.27;6.30;;;3.80;81.90;;;;;;5050528;28;20051;-61
2023/12/04 02:08:04;;;;;;;9.35;5.75;;;3.80;82.00;;;;;;5057867;28;20403;-61
2023/12/04 02:10:30;;;;;;;10.60;5.30;;;3.80;81.90;;;;;;5053522;28;20064;-61
2023/12/04 02:12:56;;;;;;;7.28;5.28;;;3.80;81.90;;;;;;5053713;28;20045;-63
2023/12/04 02:15:22;;;;;;;8.32;5.78;;;3.80;81.90;;;;;;5054378;28;20060;-63
2023/12/04 02:17:48;;;;;;;10.25;6.45;;;3.80;81.80;;;;;;5057044;28;20035;-61
2023/12/04 02:20:14;;;;;;;11.48;6.05;;;3.70;81.70;;;;;;5053113;28;20370;-63
2023/12/04 02:22:41;;;;;;;11.40;5.60;;;3.70;81.80;;;;;;5056826;28;20040;-64
2023/12/04 02:25:08;;;;;;;5.78;4.25;;;3.70;81.80;;;;;;5050582;28;20033;-61
2023/12/04 02:27:56;;;;;;;7.28;4.50;;;3.70;81.80;;;;;;5052691;28;20052;-61
2023/12/04 02:30:24;;;;;;;7.80;5.70;;;3.70;81.70;;;;;;5054580;28;20033;-63
2023/12/04 02:32:51;;;;;;;12.18;5.53;;;3.70;81.80;;;;;;5052695;28;20068;-63
2023/12/04 02:35:22;;;;;;;11.40;5.82;;;3.70;81.70;;;;;;5053438;28;20033;-63
2023/12/04 02:37:49;;;;;;;11.38;4.97;;;3.70;81.70;;;;;;5052242;28;20027;-63
2023/12/04 02:40:15;;;;;;;12.25;5.78;;;3.60;81.70;;;;;;5044464;28;20103;-61
2023/12/04 02:42:41;;;;;;;14.32;5.55;;;3.60;81.70;;;;;;5049416;28;20025;-61
2023/12/04 02:45:07;;;;;;;9.35;6.13;;;3.60;81.70;;;;;;5055968;28;20025;-61
2023/12/04 02:47:33;;;;;;;9.90;6.18;;;3.60;81.70;;;;;;5056734;28;20069;-61
2023/12/04 02:49:59;;;;;;;10.07;5.55;;;3.60;81.70;;;;;;5054881;28;20029;-63
2023/12/04 02:52:24;;;;;;;8.90;4.90;;;3.60;81.70;;;;;;5054611;28;20025;-62
2023/12/04 02:54:50;;;;;;;8.68;4.70;;;3.60;81.70;;;;;;5049566;28;20028;-61
2023/12/04 02:57:16;;;;;;;11.18;5.95;;;3.60;81.70;;;;;;5053013;28;20063;-61
2023/12/04 02:59:42;;;;;;;6.00;4.22;;;3.60;81.70;;;;;;5056861;28;20271;-61
2023/12/04 03:02:07;;;;;;;8.20;5.68;;;3.60;81.60;;;;;;5061621;28;20040;-61
2023/12/04 03:04:34;;;;;;;11.07;6.25;;;3.60;81.60;;;;;;5056205;28;20110;-61
2023/12/04 03:07:00;;;;;;;11.27;5.82;;;3.60;81.60;;;;;;5052569;28;20033;-61
2023/12/04 03:09:26;;;;;;;7.43;4.05;;;3.60;81.50;;;;;;5053180;28;20086;-61
2023/12/04 03:11:51;;;;;;;11.95;4.55;;;3.60;81.40;;;;;;5056700;28;20164;-63
2023/12/04 03:14:17;;;;;;;9.18;4.82;;;3.60;81.40;;;;;;5052457;28;20036;-63
2023/12/04 03:16:43;;;;;;;8.45;5.32;;;3.60;81.40;;;;;;5061674;28;20108;-63
2023/12/04 03:19:08;;;;;;;9.63;6.38;;;3.60;81.30;;;;;;5050776;28;20025;-63
2023/12/04 03:21:34;;;;;;;13.00;6.35;;;3.60;81.20;;;;;;5055348;28;20048;-63
2023/12/04 03:24:00;;;;;;;6.40;4.28;;;3.60;81.20;;;;;;5058339;28;20036;-61
2023/12/04 03:26:25;;;;;;;8.18;5.00;;;3.60;81.30;;;;;;5059806;28;20624;-61
2023/12/04 03:28:51;;;;;;;9.77;5.68;;;3.60;81.20;;;;;;5056426;28;20388;-63
2023/12/04 03:31:17;;;;;;;8.10;5.05;;;3.60;81.30;;;;;;5057007;28;20064;-63
2023/12/04 03:33:42;;;;;;;9.93;5.38;;;3.70;81.40;;;;;;5056017;28;20182;-63
2023/12/04 03:36:08;;;;;;;9.30;5.22;;;3.70;81.30;;;;;;5057306;28;20033;-64
2023/12/04 03:38:34;;;;;;;11.40;4.63;;;3.70;81.30;;;;;;5055195;28;20095;-63
2023/12/04 03:41:00;;;;;;;5.82;4.30;;;3.70;81.30;;;;;;5051172;28;20021;-63
2023/12/04 03:43:26;;;;;;;8.82;5.50;;;3.70;81.20;;;;;;5052523;28;20036;-63
2023/12/04 03:45:51;;;;;;;6.60;4.72;;;3.70;81.20;;;;;;5044421;28;20064;-63
2023/12/04 03:48:17;;;;;;;7.07;4.63;;;3.70;81.30;;;;;;5051938;28;20051;-63
2023/12/04 03:50:42;;;;;;;6.63;4.38;;;3.70;81.20;;;;;;5051467;28;20165;-63
2023/12/04 03:53:08;;;;;;;10.95;4.63;;;3.70;81.20;;;;;;5051495;28;20052;-64
2023/12/04 03:55:34;;;;;;;10.32;4.47;;;3.70;81.20;;;;;;5053708;28;20028;-63
2023/12/04 03:58:00;;;;;;;6.20;4.20;;;3.70;81.20;;;;;;5052045;28;20067;-63
2023/12/04 04:00:25;;;;;;;7.88;3.35;;;3.60;81.20;;;;;;5051408;28;20033;-63
2023/12/04 04:02:51;;;;;;;6.97;4.20;;;3.70;81.30;;;;;;5050759;28;20031;-63
2023/12/04 04:05:17;;;;;;;9.18;4.88;;;3.70;81.20;;;;;;5053753;28;20468;-63
2023/12/04 04:07:43;;;;;;;8.40;4.93;;;3.60;81.20;;;;;;5056847;28;20490;-63
2023/12/04 04:10:09;;;;;;;9.30;4.88;;;3.60;81.10;;;;;;5055200;28;20025;-63
2023/12/04 04:12:35;;;;;;;6.55;4.57;;;3.60;81.10;;;;;;5056284;28;20037;-63
2023/12/04 04:15:00;;;;;;;8.23;4.55;;;3.60;81.10;;;;;;5055032;28;20032;-63
2023/12/04 04:17:26;;;;;;;5.93;4.57;;;3.60;81.20;;;;;;5047237;28;20108;-61
2023/12/04 04:19:55;;;;;;;5.95;4.35;;;3.50;81.20;;;;;;5051462;28;20036;-63
2023/12/04 04:22:21;;;;;;;7.38;5.07;;;3.60;81.30;;;;;;5055451;28;20024;-61
2023/12/04 04:24:48;;;;;;;6.35;4.10;;;3.50;81.10;;;;;;5052579;28;20053;-61
2023/12/04 04:27:14;;;;;;;6.30;4.18;;;3.50;81.10;;;;;;5053168;28;20101;-63
2023/12/04 04:29:40;;;;;;;7.30;5.15;;;3.50;81.10;;;;;;5048327;28;20124;-63
2023/12/04 04:32:06;;;;;;;10.13;5.22;;;3.50;81.10;;;;;;5050159;28;20024;-63
2023/12/04 04:34:32;;;;;;;6.57;4.13;;;3.50;81.10;;;;;;5055153;28;20484;-61
2023/12/04 04:36:58;;;;;;;7.78;3.90;;;3.50;81.10;;;;;;5051223;28;20561;-61
2023/12/04 04:39:24;;;;;;;6.53;3.25;;;3.50;81.20;;;;;;5052533;28;20099;-63
2023/12/04 04:41:50;;;;;;;8.48;4.70;;;3.50;81.80;;;;;;5052960;28;20079;-63
2023/12/04 04:44:15;;;;;;;7.60;3.58;;;3.50;81.20;;;;;;5049388;28;20489;-63
2023/12/04 04:46:41;;;;;;;10.70;4.22;;;3.40;81.00;;;;;;5052118;28;20540;-63
2023/12/04 04:49:07;;;;;;;8.38;5.28;;;3.40;81.00;;;;;;5059660;28;20035;-61
2023/12/04 04:51:34;;;;;;;9.40;4.28;;;3.40;81.00;;;;;;5055228;28;20025;-63
2023/12/04 04:54:00;;;;;;;6.15;4.30;;;3.50;81.00;;;;;;5053224;28;20024;-63
2023/12/04 04:56:26;;;;;;;6.22;3.55;;;3.40;80.90;;;;;;5045320;28;20384;-63
2023/12/04 04:58:53;;;;;;;7.57;3.80;;;3.40;80.90;;;;;;5053168;28;20029;-63
2023/12/04 05:01:19;;;;;;;8.85;4.00;;;3.50;80.90;;;;;;5052420;28;20071;-63
2023/12/04 05:03:45;;;;;;;5.97;4.38;;;3.50;80.80;;;;;;5051233;28;20025;-63
2023/12/04 05:06:11;;;;;;;7.38;4.25;;;3.50;80.70;;;;;;5043747;28;20087;-61
2023/12/04 05:08:36;;;;;;;7.43;4.05;;;3.50;80.70;;;;;;5049580;28;20364;-61
2023/12/04 05:11:02;;;;;;;9.23;4.78;;;3.50;80.50;;;;;;5049955;28;20403;-61
2023/12/04 05:13:28;;;;;;;6.00;3.45;;;3.40;80.40;;;;;;5053100;28;20037;-63
2023/12/04 05:15:54;;;;;;;4.95;3.55;;;3.40;80.50;;;;;;5045674;28;20094;-63
2023/12/04 05:18:19;;;;;;;4.93;2.85;;;3.40;80.40;;;;;;5049157;28;20057;-63
2023/12/04 05:20:45;;;;;;;6.25;4.32;;;3.40;80.30;;;;;;5060549;28;20041;-61
2023/12/04 05:23:11;;;;;;;6.03;3.28;;;3.40;80.40;;;;;;5052033;28;20036;-61
2023/12/04 05:25:37;;;;;;;6.13;3.67;;;3.50;80.40;;;;;;5057572;28;20045;-61
2023/12/04 05:28:04;;;;;;;7.30;3.67;;;3.40;80.10;;;;;;5056807;28;20029;-61
2023/12/04 05:30:29;;;;;;;7.22;4.13;;;3.40;80.10;;;;;;5052925;28;20043;-61
2023/12/04 05:32:55;;;;;;;4.93;3.63;;;3.40;80.10;;;;;;5054221;28;20508;-61
2023/12/04 05:35:21;;;;;;;7.18;3.85;;;3.40;80.20;;;;;;5053180;28;20048;-61
2023/12/04 05:37:46;;;;;;;5.53;3.35;;;3.40;80.20;;;;;;5059610;28;20038;-61
2023/12/04 05:40:12;;;;;;;6.22;3.75;;;3.40;80.10;;;;;;5053762;28;20040;-61
2023/12/04 05:42:38;;;;;;;7.03;3.78;;;3.40;80.10;;;;;;5057123;28;20063;-61
2023/12/04 05:45:04;;;;;;;5.85;3.42;;;3.40;80.10;;;;;;5059181;28;20029;-63
2023/12/04 05:47:30;;;;;;;8.07;4.20;;;3.40;79.80;;;;;;5055078;28;20400;-63
2023/12/04 05:49:56;;;;;;;4.97;3.10;;;3.40;79.70;;;;;;5067201;28;20021;-63
2023/12/04 05:52:21;;;;;;;4.93;3.28;;;3.40;79.80;;;;;;5057590;28;20044;-63
2023/12/04 05:54:47;;;;;;;4.82;3.50;;;3.30;79.80;;;;;;5040811;28;20044;-63
2023/12/04 05:57:13;;;;;;;4.78;3.55;;;3.30;79.80;;;;;;5051967;28;20030;-63
2023/12/04 05:59:39;;;;;;;6.90;3.95;;;3.40;79.80;;;;;;5054970;28;20037;-63
2023/12/04 06:02:04;;;;;;;4.13;2.75;;;3.40;79.70;;;;;;5053375;28;20476;-61
2023/12/04 06:04:30;;;;;;;9.00;4.25;;;3.40;79.60;;;;;;5045008;28;20035;-61
2023/12/04 06:06:56;;;;;;;6.28;3.83;;;3.40;79.40;;;;;;5052025;28;20033;-64
2023/12/04 06:09:21;;;;;;;6.57;4.20;;;3.40;79.40;;;;;;5048199;28;20392;-64
2023/12/04 06:11:47;;;;;;;4.88;3.40;;;3.40;79.40;;;;;;5051594;28;20029;-64
2023/12/04 06:14:13;;;;;;;7.88;4.20;;;3.40;79.40;;;;;;5055604;28;20033;-64
2023/12/04 06:16:38;;;;;;;4.38;2.95;;;3.40;79.40;;;;;;5061822;28;20079;-64
2023/12/04 06:19:04;;;;;;;5.40;3.17;;;3.40;79.40;;;;;;5056409;28;20432;-61
2023/12/04 06:21:30;;;;;;;8.48;4.25;;;3.40;79.40;;;;;;5051690;28;20037;-61
2023/12/04 06:23:57;;;;;;;4.10;3.22;;;3.40;79.30;;;;;;5059769;28;20077;-61
2023/12/04 06:26:23;;;;;;;8.30;4.50;;;3.40;79.30;;;;;;5052586;28;20040;-61
2023/12/04 06:28:49;;;;;;;10.07;4.13;;;3.40;79.20;;;;;;5052102;28;20021;-61
2023/12/04 06:31:15;;;;;;;6.15;3.67;;;3.40;79.20;;;;;;5056744;28;20020;-61
2023/12/04 06:33:41;;;;;;;5.47;3.65;;;3.50;79.30;;;;;;5052270;28;20079;-61
2023/12/04 06:36:07;;;;;;;4.57;2.80;;;3.50;79.10;;;;;;5056321;28;20041;-63
2023/12/04 06:38:36;;;;;;;5.72;3.15;;;3.50;79.10;;;;;;5060328;28;20033;-63
2023/12/04 06:41:02;;;;;;;7.35;3.90;;;3.50;79.10;;;;;;5055745;28;20056;-63
2023/12/04 06:43:28;;;;;;;4.20;3.75;;;3.50;79.00;;;;;;5054613;28;20076;-64
2023/12/04 06:45:57;;;;;;;5.72;2.92;;;3.50;79.00;;;;;;5058058;28;20045;-63
2023/12/04 06:48:23;;;;;;;5.95;3.90;;;3.50;79.10;;;;;;5059343;28;20484;-63
2023/12/04 06:50:48;;;;;;;4.53;2.90;;;3.50;79.00;;;;;;5053998;28;20391;-64
2023/12/04 06:53:14;;;;;;;7.07;3.28;;;3.60;78.90;;;;;;5060885;28;20051;-64
2023/12/04 06:55:40;;;;;;;5.90;2.60;;;3.60;78.80;;;;;;5054364;28;20048;-63
2023/12/04 06:58:05;;;;;;;6.30;3.13;;;3.60;78.80;;;;;;5060306;28;20063;-61
2023/12/04 07:00:31;;;;;;;4.40;3.40;;;3.60;78.80;;;;;;5060964;28;20103;-61
2023/12/04 07:02:57;;;;;;;4.93;3.33;;;3.60;78.70;;;;;;5058427;28;20624;-63
2023/12/04 07:05:22;;;;;;;3.03;2.35;;;3.60;78.80;;;;;;5053666;28;20140;-63
2023/12/04 07:07:48;;;;;;;5.00;3.10;;;3.60;78.30;;;;;;5059505;28;20023;-64
2023/12/04 07:10:14;;;;;;;9.40;3.33;;;3.60;78.30;;;;;;5052696;28;20044;-63
2023/12/04 07:12:44;;;;;;;5.70;3.47;;;3.60;78.30;;;;;;5056341;28;20438;-61
2023/12/04 07:15:11;;;;;;;4.93;3.08;;;3.60;78.30;;;;;;5055588;28;20032;-63
2023/12/04 07:17:37;;;;;;;7.75;3.90;;;3.60;78.90;;;;;;5050839;28;20064;-61
2023/12/04 07:20:04;;;;;;;5.72;2.83;;;3.60;78.10;;;;;;5054337;28;20037;-61
2023/12/04 07:22:32;;;;;;;4.20;2.70;;;3.60;78.10;;;;;;5057299;28;20138;-61
2023/12/04 07:24:58;;;;;;;3.75;2.72;;;3.60;77.90;;;;;;5063741;28;20045;-61
2023/12/04 07:27:24;;;;;;;5.25;3.00;;;3.60;77.80;;;;;;5052126;28;20071;-61
2023/12/04 07:29:49;;;;;;;6.68;3.20;;;3.60;77.80;;;;;;5050912;28;20365;-61
2023/12/04 07:32:15;;;;;;;5.72;3.20;;;3.60;77.70;;;;;;5049420;28;20061;-61
2023/12/04 07:34:41;;;;;;;10.27;4.65;;;3.60;77.70;;;;;;5052386;28;20452;-61
2023/12/04 07:37:07;;;;;;;4.30;2.80;;;3.60;77.70;;;;;;5063273;28;20364;-61
2023/12/04 07:39:32;;;;;;;6.38;3.85;;;3.60;77.70;;;;;;5058130;28;20029;-61
2023/12/04 07:41:58;;;;;;;2.92;2.55;;;3.60;77.70;;;;;;5054434;28;20029;-64
2023/12/04 07:44:24;;;;;;;6.03;3.67;;;3.60;77.50;;;;;;5045284;28;20166;-64
2023/12/04 07:46:49;;;;;;;4.60;2.40;;;3.60;77.50;;;;;;5049085;28;20063;-66
2023/12/04 07:49:15;;;;;;;3.53;3.05;;;3.60;77.50;;;;;;5059122;28;20047;-64
2023/12/04 07:51:41;;;;;;;3.47;2.47;;;3.60;77.40;;;;;;5059189;28;20539;-64
2023/12/04 07:54:06;;;;;;;3.90;3.17;;;3.60;77.40;;;;;;5062433;28;20035;-63
2023/12/04 07:56:32;;;;;;;4.07;2.42;;;3.60;77.40;;;;;;5062803;28;20112;-63
2023/12/04 07:58:58;;;;;;;3.72;2.38;;;3.60;77.40;;;;;;5067930;28;20115;-64
2023/12/04 08:01:24;;;;;;;3.85;2.35;;;3.60;77.30;;;;;;5053974;28;20491;-61
2023/12/04 08:03:49;;;;;;;4.22;3.30;;;3.60;77.20;;;;;;5060952;28;20028;-61
2023/12/04 08:06:18;;;;;;;4.90;2.17;;;3.60;77.20;;;;;;5055440;28;20054;-63
2023/12/04 08:08:44;;;;;;;5.70;2.90;;;3.60;77.10;;;;;;5057682;28;20017;-64
2023/12/04 08:11:11;;;;;;;4.90;2.35;;;3.60;77.00;;;;;;5053340;28;20384;-59
2023/12/04 08:13:38;;;;;;;6.50;3.25;;;3.70;76.80;;;;;;5062016;28;20020;-60
2023/12/04 08:16:05;;;;;;;4.68;3.40;;;3.70;76.90;;;;;;5057275;28;20040;-59
2023/12/04 08:18:30;;;;;;;5.72;3.38;;;3.70;76.60;;;;;;5052034;28;20025;-61
2023/12/04 08:20:59;;;;;;;4.45;2.50;;;3.60;76.20;;;;;;5056289;28;20081;-61
2023/12/04 08:23:25;;;;;;;5.47;2.67;;;3.60;76.30;;;;;;5060558;28;20135;-63
2023/12/04 08:25:50;;;;;;;4.90;3.15;;;3.70;76.50;;;;;;5055127;28;20189;-63
2023/12/04 08:28:16;;;;;;;4.85;2.50;;;3.60;76.50;;;;;;5061817;28;20031;-64
2023/12/04 08:30:42;;;;;;;4.10;2.30;;;3.70;76.60;;;;;;5060045;28;20100;-60
2023/12/04 08:33:07;;;;;;;4.88;3.28;;;3.70;76.50;;;;;;5055437;28;20049;-60
2023/12/04 08:35:33;;;;;;;5.57;2.92;;;3.70;76.50;;;;;;5054817;28;20033;-60
2023/12/04 08:37:59;;;;;;;4.63;2.70;;;3.70;76.30;;;;;;5057282;28;20111;-61
2023/12/04 08:40:24;;;;;;;4.60;2.80;;;3.70;76.30;;;;;;5040357;28;20384;-61
2023/12/04 08:42:50;;;;;;;4.30;2.45;;;3.70;76.30;;;;;;5050328;28;20029;-61
2023/12/04 08:45:16;;;;;;;3.88;3.08;;;3.80;76.40;;;;;;5045517;28;20047;-61
2023/12/04 08:47:41;;;;;;;4.43;2.92;;;3.80;76.40;;;;;;5055612;28;20021;-61
2023/12/04 08:50:07;;;;;;;4.72;2.80;;;3.80;76.40;;;;;;5051270;28;20029;-61
2023/12/04 08:52:33;;;;;;;4.30;2.72;;;3.90;76.40;;;;;;5047022;28;20527;-61
2023/12/04 08:54:59;;;;;;;5.07;3.22;;;3.90;76.50;;;;;;5049464;28;20115;-63
2023/12/04 08:57:25;;;;;;;4.95;3.08;;;3.90;76.50;;;;;;5053222;28;20448;-61
2023/12/04 08:59:50;;;;;;;5.05;3.25;;;3.90;76.50;;;;;;5045393;28;20036;-61
2023/12/04 09:02:16;;;;;;;5.38;3.28;;;4.00;76.40;;;;;;5051229;28;20040;-63
2023/12/04 09:04:42;;;;;;;3.85;2.90;;;4.00;76.40;;;;;;5047720;28;20079;-61
2023/12/04 09:07:08;;;;;;;4.03;2.47;;;4.00;76.20;;;;;;5050060;28;20055;-61
2023/12/04 09:09:34;;;;;;;3.28;2.65;;;4.10;76.20;;;;;;5054112;28;20361;-61
2023/12/04 09:12:00;;;;;;;3.47;2.97;;;4.10;76.20;;;;;;5054767;28;20067;-64
2023/12/04 09:14:27;;;;;;;4.53;2.95;;;4.10;76.10;;;;;;5059087;28;20072;-64
2023/12/04 09:16:53;;;;;;;4.32;2.90;;;4.20;76.10;;;;;;5053552;28;20025;-63
2023/12/04 09:19:19;;;;;;;3.25;2.58;;;4.20;76.10;;;;;;5049635;28;20042;-63
2023/12/04 09:21:44;;;;;;;7.50;4.00;;;4.20;76.10;;;;;;5055187;28;20059;-63
2023/12/04 09:24:10;;;;;;;5.50;3.38;;;4.20;76.10;;;;;;5045840;28;20044;-62
2023/12/04 09:26:36;;;;;;;4.55;2.70;;;4.30;76.10;;;;;;5056572;28;20033;-60
2023/12/04 09:29:02;;;;;;;4.07;3.13;;;4.30;76.10;;;;;;5042769;28;20492;-61
2023/12/04 09:31:28;;;;;;;5.00;3.08;;;4.30;76.10;;;;;;5053658;28;20043;-63
2023/12/04 09:33:53;;;;;;;5.20;3.30;;;4.30;76.10;;;;;;5055685;28;20029;-63
2023/12/04 09:36:19;;;;;;;7.82;3.40;;;4.30;76.00;;;;;;5058793;28;20065;-63
2023/12/04 09:38:45;;;;;;;6.30;3.15;;;4.30;76.00;;;;;;5056356;28;20370;-64
2023/12/04 09:41:12;;;;;;;3.67;3.20;;;4.40;76.10;;;;;;5057619;28;20024;-63
2023/12/04 09:43:38;;;;;;;3.50;2.97;;;4.40;76.10;;;;;;5058965;28;20491;-63
2023/12/04 09:46:04;;;;;;;5.40;3.55;;;4.40;76.10;;;;;;5058587;28;20028;-64
2023/12/04 09:48:31;;;;;;;6.22;3.38;;;4.50;76.10;;;;;;5055326;28;20025;-64
2023/12/04 09:50:57;;;;;;;5.13;3.50;;;4.40;76.00;;;;;;5051028;28;20123;-64
2023/12/04 09:53:26;;;;;;;4.53;3.45;;;4.50;76.00;;;;;;5053222;28;20064;-64
2023/12/04 09:55:53;;;;;;;7.05;3.63;;;4.50;76.00;;;;;;5055828;28;20368;-63
2023/12/04 09:58:25;;;;;;;6.00;3.60;;;4.50;76.00;;;;;;5046244;28;20029;-64
2023/12/04 10:00:54;;;;;;;3.90;2.72;;;4.50;75.90;;;;;;5054327;28;20432;-66
2023/12/04 10:03:20;;;;;;;4.53;3.00;;;4.60;75.80;;;;;;5052745;28;20029;-66
2023/12/04 10:05:47;;;;;;;6.07;3.35;;;4.50;75.60;;;;;;5050763;28;20124;-60
2023/12/04 10:08:12;;;;;;;6.72;3.50;;;4.50;75.70;;;;;;5053553;28;20491;-60
2023/12/04 10:10:39;;;;;;;5.28;3.72;;;4.60;75.70;;;;;;5052778;28;20029;-63
2023/12/04 10:13:05;;;;;;;6.35;4.35;;;4.50;75.60;;;;;;5053061;28;20062;-61
2023/12/04 10:15:30;;;;;;;5.35;2.90;;;4.60;75.70;;;;;;5053321;28;20032;-64
2023/12/04 10:17:56;;;;;;;4.80;2.80;;;4.60;75.70;;;;;;5053938;28;20078;-63
2023/12/04 10:20:23;;;;;;;6.32;3.35;;;4.60;75.60;;;;;;5060313;28;20479;-65
2023/12/04 10:22:57;;;;;;;3.28;2.40;;;4.60;75.50;;;;;;5047616;28;20063;-63
2023/12/04 10:25:25;;;;;;;5.25;3.05;;;4.60;75.60;;;;;;5047414;28;20080;-60
2023/12/04 10:27:52;;;;;;;4.03;3.05;;;4.70;75.40;;;;;;5053617;28;20012;-66
2023/12/04 10:30:28;;;;;;;5.35;2.80;;;4.70;75.40;;;;;;5041742;28;20067;-66
2023/12/04 10:33:00;;;;;;;8.25;3.25;;;4.70;75.30;;;;;;5030968;28;20029;-64
2023/12/04 10:35:33;;;;;;;7.38;3.45;;;4.70;75.20;;;;;;5048380;28;20545;-63
2023/12/04 10:37:59;;;;;;;4.50;3.10;;;4.70;75.20;;;;;;5049793;28;20065;-64
2023/12/04 10:40:33;;;;;;;5.88;2.80;;;4.70;75.20;;;;;;5050239;28;20409;-61
2023/12/04 10:43:11;;;;;;;6.50;3.45;;;4.70;75.20;;;;;;5038028;28;20039;-65
2023/12/04 10:45:37;;;;;;;6.07;3.20;;;4.80;75.20;;;;;;5039835;28;20037;-64
2023/12/04 10:48:04;;;;;;;5.38;3.05;;;4.70;75.10;;;;;;5043887;28;20091;-61
2023/12/04 10:50:50;;;;;;;6.35;3.13;;;4.70;75.10;;;;;;5047002;28;20059;-61
2023/12/04 10:53:17;;;;;;;5.30;3.45;;;4.70;75.10;;;;;;5050590;28;20083;-61
2023/12/04 10:55:46;;;;;;;4.93;3.75;;;4.60;75.00;;;;;;5050146;28;20048;-62
2023/12/04 10:58:17;;;;;;;4.03;3.55;;;4.60;75.00;;;;;;5056136;28;20325;-64
2023/12/04 11:00:48;;;;;;;4.00;2.85;;;4.60;74.80;;;;;;5053206;28;20033;-64
2023/12/04 11:03:23;;;;;;;7.03;3.83;;;4.60;74.70;;;;;;5050495;28;20052;-62
2023/12/04 11:05:54;;;;;;;4.40;2.78;;;4.70;73.80;;;;;;5052291;28;20535;-63
2023/12/04 11:08:20;;;;;;;7.18;3.47;;;4.70;73.70;;;;;;5055377;28;20021;-62
2023/12/04 11:10:55;;;;;;;7.75;3.47;;;4.70;73.90;;;;;;5061290;28;20083;-62
2023/12/04 11:13:27;;;;;;;6.45;3.03;;;4.70;73.80;;;;;;5059509;28;20386;-65
2023/12/04 11:15:56;;;;;;;4.22;2.92;;;4.80;73.70;;;;;;5057598;28;20037;-62
2023/12/04 11:18:24;;;;;;;6.80;3.08;;;4.90;73.70;;;;;;5058581;28;20096;-62
2023/12/04 11:21:09;;;;;;;4.30;3.15;;;4.90;73.50;;;;;;5057009;28;20491;-64
2023/12/04 11:23:35;;;;;;;4.55;3.13;;;5.00;73.40;;;;;;5058979;28;20040;-64
2023/12/04 11:26:03;;;;;;;4.38;3.13;;;4.90;73.30;;;;;;5055960;28;20033;-64
2023/12/04 11:28:30;;;;;;;7.78;3.05;;;5.00;73.50;;;;;;5056435;28;20135;-65
2023/12/04 11:30:56;;;;;;;7.30;3.67;;;5.00;73.50;;;;;;5056225;28;20502;-62
2023/12/04 11:33:21;;;;;;;4.57;2.97;;;5.00;73.30;;;;;;5037852;28;20021;-65
2023/12/04 11:35:47;;;;;;;7.18;3.10;;;5.00;73.40;;;;;;5034550;28;20033;-62
2023/12/04 11:38:14;;;;;;;5.20;3.05;;;5.00;73.40;;;;;;5049624;28;20387;-62
2023/12/04 11:40:42;;;;;;;6.85;3.08;;;5.00;73.20;;;;;;5054921;28;20423;-62
2023/12/04 11:43:27;;;;;;;6.97;2.60;;;5.00;73.20;;;;;;5047568;28;20024;-65
2023/12/04 11:46:06;;;;;;;7.75;2.55;;;5.00;73.10;;;;;;5049298;28;20072;-62
2023/12/04 11:48:32;;;;;;;5.03;2.75;;;5.00;73.10;;;;;;5052949;28;20065;-62
2023/12/04 11:50:59;;;;;;;3.72;2.30;;;5.00;73.10;;;;;;5055462;28;20498;-61
2023/12/04 11:53:25;;;;;;;6.28;3.60;;;5.00;73.70;;;;;;5047498;28;20037;-62
2023/12/04 11:55:51;;;;;;;4.25;3.00;;;5.00;72.90;;;;;;5044562;28;20086;-62
2023/12/04 11:58:17;;;;;;;7.40;2.85;;;4.90;72.80;;;;;;5053740;28;21389;-61
2023/12/04 12:00:42;;;;;;;4.55;2.63;;;4.90;73.00;;;;;;5039161;28;20037;-62
2023/12/04 12:03:10;;;;;;;5.30;3.15;;;5.00;73.20;;;;;;5050655;28;20371;-61
2023/12/04 12:05:38;;;;;;;6.05;3.25;;;5.00;72.80;;;;;;5045525;28;20025;-65
2023/12/04 12:08:05;;;;;;;6.82;3.53;;;5.10;72.90;;;;;;5052055;28;20127;-65
2023/12/04 12:10:32;;;;;;;5.80;3.53;;;5.10;72.80;;;;;;5051507;28;20029;-65
2023/12/04 12:12:58;;;;;;;5.22;3.55;;;5.10;72.80;;;;;;5052147;28;20492;-65
2023/12/04 12:15:24;;;;;;;7.97;3.10;;;5.10;72.90;;;;;;5052076;28;20369;-65
2023/12/04 12:17:53;;;;;;;7.03;3.40;;;5.10;72.90;;;;;;5043929;28;20479;-65
2023/12/04 12:20:20;;;;;;;4.78;3.03;;;5.10;72.70;;;;;;5045673;28;20139;-65
2023/12/04 12:22:48;;;;;;;5.18;3.00;;;5.10;72.80;;;;;;5051817;28;20284;-65
2023/12/04 12:25:14;;;;;;;6.70;3.67;;;5.10;72.80;;;;;;5050000;28;20044;-64
2023/12/04 12:27:40;;;;;;;6.55;2.80;;;5.10;73.00;;;;;;5055606;28;20460;-64
2023/12/04 12:30:07;;;;;;;2.75;2.30;;;5.10;73.10;;;;;;5052463;28;20028;-64
2023/12/04 12:32:34;;;;;;;5.45;2.97;;;5.10;73.10;;;;;;5046095;28;20036;-61
2023/12/04 12:34:59;;;;;;;2.85;2.20;;;5.00;72.60;;;;;;5047486;28;20070;-61
2023/12/04 12:37:25;;;;;;;5.65;2.58;;;5.00;72.80;;;;;;5064449;28;20045;-61
2023/12/04 12:39:54;;;;;;;10.85;2.92;;;5.00;72.80;;;;;;5055284;28;20037;-64
2023/12/04 12:42:27;;;;;;;5.18;2.53;;;5.00;72.90;;;;;;5051599;28;20423;-65
2023/12/04 12:44:55;;;;;;;4.72;2.42;;;5.00;73.00;;;;;;5047593;28;20040;-65
2023/12/04 12:47:22;;;;;;;2.58;2.05;;;5.00;73.00;;;;;;5040125;28;20084;-61
2023/12/04 12:49:48;;;;;;;5.93;2.80;;;4.90;72.70;;;;;;5043066;28;20033;-61
2023/12/04 12:52:14;;;;;;;5.53;3.40;;;4.90;72.70;;;;;;5046125;28;20480;-61